sensor_id;sensor_type;location;lat;lon;timestamp;temperature;humidity
44886;DHT22;36669;51.428;21.162;2022-12-24T00:00:39;6.50;99.90
44886;DHT22;36669;51.428;21.162;2022-12-24T00:03:07;6.50;99.90
44886;DHT22;36669;51.428;21.162;2022-12-24T00:05:36;6.50;99.90
44886;DHT22;36669;51.428;21.162;2022-12-24T00:08:04;6.50;99.90
44886;DHT22;36669;51.428;21.162;2022-12-24T00:10:31;6.50;99.90
44886;DHT22;36669;51.428;21.162;2022-12-24T00:12:59;6.50;99.90
44886;DHT22;36669;51.428;21.162;2022-12-24T00:15:25;6.50;99.90
44886;DHT22;36669;51.428;21.162;2022-12-24T00:17:51;6.50;99.90
44886;DHT22;36669;51.428;21.162;2022-12-24T00:20:20;6.50;99.90
44886;DHT22;36669;51.428;21.162;2022-12-24T00:22:46;6.50;99.90
44886;DHT22;36669;51.428;21.162;2022-12-24T00:25:14;6.50;99.90
44886;DHT22;36669;51.428;21.162;2022-12-24T00:27:42;6.50;99.90
44886;DHT22;36669;51.428;21.162;2022-12-24T00:30:11;6.50;99.90
44886;DHT22;36669;51.428;21.162;2022-12-24T00:32:38;6.50;99.90
44886;DHT22;36669;51.428;21.162;2022-12-24T00:35:05;6.50;99.90
44886;DHT22;36669;51.428;21.162;2022-12-24T00:37:32;6.40;99.90
44886;DHT22;36669;51.428;21.162;2022-12-24T00:39:59;6.40;99.90
44886;DHT22;36669;51.428;21.162;2022-12-24T00:42:27;6.40;99.90
44886;DHT22;36669;51.428;21.162;2022-12-24T00:44:54;6.40;99.90
44886;DHT22;36669;51.428;21.162;2022-12-24T00:47:20;6.40;99.90
44886;DHT22;36669;51.428;21.162;2022-12-24T00:49:47;6.40;99.90
44886;DHT22;36669;51.428;21.162;2022-12-24T00:52:15;6.40;99.90
44886;DHT22;36669;51.428;21.162;2022-12-24T00:54:43;6.40;99.90
44886;DHT22;36669;51.428;21.162;2022-12-24T00:57:10;6.40;99.90
44886;DHT22;36669;51.428;21.162;2022-12-24T00:59:37;6.40;99.90
44886;DHT22;36669;51.428;21.162;2022-12-24T01:02:05;6.40;99.90
44886;DHT22;36669;51.428;21.162;2022-12-24T01:04:33;6.40;99.90
44886;DHT22;36669;51.428;21.162;2022-12-24T01:07:20;6.40;99.90
44886;DHT22;36669;51.428;21.162;2022-12-24T01:09:47;6.40;99.90
44886;DHT22;36669;51.428;21.162;2022-12-24T01:12:14;6.40;99.90
44886;DHT22;36669;51.428;21.162;2022-12-24T01:14:42;6.40;99.90
44886;DHT22;36669;51.428;21.162;2022-12-24T01:17:10;6.40;99.90
44886;DHT22;36669;51.428;21.162;2022-12-24T01:19:37;6.40;99.90
44886;DHT22;36669;51.428;21.162;2022-12-24T01:22:03;6.40;99.90
44886;DHT22;36669;51.428;21.162;2022-12-24T01:24:32;6.40;99.90
44886;DHT22;36669;51.428;21.162;2022-12-24T01:26:59;6.40;99.90
44886;DHT22;36669;51.428;21.162;2022-12-24T01:29:26;6.30;99.90
44886;DHT22;36669;51.428;21.162;2022-12-24T01:31:53;6.30;99.90
44886;DHT22;36669;51.428;21.162;2022-12-24T01:34:20;6.30;99.90
44886;DHT22;36669;51.428;21.162;2022-12-24T01:36:48;6.30;99.90
44886;DHT22;36669;51.428;21.162;2022-12-24T01:39:15;6.30;99.90
44886;DHT22;36669;51.428;21.162;2022-12-24T01:41:42;6.30;99.90
44886;DHT22;36669;51.428;21.162;2022-12-24T01:44:33;6.30;99.90
44886;DHT22;36669;51.428;21.162;2022-12-24T01:47:26;6.30;99.90
44886;DHT22;36669;51.428;21.162;2022-12-24T01:50:13;6.30;99.90
44886;DHT22;36669;51.428;21.162;2022-12-24T01:52:42;6.20;99.90
44886;DHT22;36669;51.428;21.162;2022-12-24T01:55:15;6.20;99.90
44886;DHT22;36669;51.428;21.162;2022-12-24T01:57:47;6.20;99.90
44886;DHT22;36669;51.428;21.162;2022-12-24T02:00:17;6.20;99.90
44886;DHT22;36669;51.428;21.162;2022-12-24T02:02:46;6.20;99.90
44886;DHT22;36669;51.428;21.162;2022-12-24T02:05:37;6.20;99.90
44886;DHT22;36669;51.428;21.162;2022-12-24T02:08:06;6.10;99.90
44886;DHT22;36669;51.428;21.162;2022-12-24T02:10:34;6.10;99.90
44886;DHT22;36669;51.428;21.162;2022-12-24T02:13:02;6.10;99.90
44886;DHT22;36669;51.428;21.162;2022-12-24T02:15:41;6.10;99.90
44886;DHT22;36669;51.428;21.162;2022-12-24T02:30:50;5.90;99.90
44886;DHT22;36669;51.428;21.162;2022-12-24T02:33:17;5.90;99.90
44886;DHT22;36669;51.428;21.162;2022-12-24T02:39:19;5.80;99.90
44886;DHT22;36669;51.428;21.162;2022-12-24T02:41:53;5.80;99.90
44886;DHT22;36669;51.428;21.162;2022-12-24T02:45:03;5.80;99.90
44886;DHT22;36669;51.428;21.162;2022-12-24T02:47:34;5.80;99.90
44886;DHT22;36669;51.428;21.162;2022-12-24T02:50:03;5.80;99.90
44886;DHT22;36669;51.428;21.162;2022-12-24T02:52:42;5.80;99.90
44886;DHT22;36669;51.428;21.162;2022-12-24T02:55:27;5.80;99.90
44886;DHT22;36669;51.428;21.162;2022-12-24T02:58:24;5.80;99.90
44886;DHT22;36669;51.428;21.162;2022-12-24T03:01:19;5.80;99.90
44886;DHT22;36669;51.428;21.162;2022-12-24T03:06:59;5.70;99.90
44886;DHT22;36669;51.428;21.162;2022-12-24T03:12:38;5.70;99.90
44886;DHT22;36669;51.428;21.162;2022-12-24T03:15:09;5.70;99.90
44886;DHT22;36669;51.428;21.162;2022-12-24T03:17:39;5.70;99.90
44886;DHT22;36669;51.428;21.162;2022-12-24T03:20:21;5.70;99.90
44886;DHT22;36669;51.428;21.162;2022-12-24T03:22:52;5.70;99.90
44886;DHT22;36669;51.428;21.162;2022-12-24T03:25:20;5.60;99.90
44886;DHT22;36669;51.428;21.162;2022-12-24T03:27:48;5.60;99.90
44886;DHT22;36669;51.428;21.162;2022-12-24T03:30:15;5.70;99.90
44886;DHT22;36669;51.428;21.162;2022-12-24T03:32:45;5.70;99.90
44886;DHT22;36669;51.428;21.162;2022-12-24T03:35:14;5.70;99.90
44886;DHT22;36669;51.428;21.162;2022-12-24T03:37:41;5.70;99.90
44886;DHT22;36669;51.428;21.162;2022-12-24T03:40:08;5.70;99.90
44886;DHT22;36669;51.428;21.162;2022-12-24T03:42:35;5.70;99.90
44886;DHT22;36669;51.428;21.162;2022-12-24T03:45:03;5.70;99.90
44886;DHT22;36669;51.428;21.162;2022-12-24T03:47:31;5.70;99.90
44886;DHT22;36669;51.428;21.162;2022-12-24T03:49:58;5.60;99.90
44886;DHT22;36669;51.428;21.162;2022-12-24T03:52:24;5.60;99.90
44886;DHT22;36669;51.428;21.162;2022-12-24T03:54:52;5.60;99.90
44886;DHT22;36669;51.428;21.162;2022-12-24T03:57:19;5.60;99.90
44886;DHT22;36669;51.428;21.162;2022-12-24T03:59:47;5.60;99.90
44886;DHT22;36669;51.428;21.162;2022-12-24T04:02:13;5.60;99.90
44886;DHT22;36669;51.428;21.162;2022-12-24T04:04:40;5.60;99.90
44886;DHT22;36669;51.428;21.162;2022-12-24T04:07:08;5.60;99.90
44886;DHT22;36669;51.428;21.162;2022-12-24T04:09:36;5.60;99.90
44886;DHT22;36669;51.428;21.162;2022-12-24T04:12:04;5.60;99.90
44886;DHT22;36669;51.428;21.162;2022-12-24T04:14:32;5.50;99.90
44886;DHT22;36669;51.428;21.162;2022-12-24T04:16:59;5.50;99.90
44886;DHT22;36669;51.428;21.162;2022-12-24T04:19:26;5.50;99.90
44886;DHT22;36669;51.428;21.162;2022-12-24T04:21:54;5.50;99.90
44886;DHT22;36669;51.428;21.162;2022-12-24T04:24:20;5.40;99.90
44886;DHT22;36669;51.428;21.162;2022-12-24T04:26:46;5.40;99.90
44886;DHT22;36669;51.428;21.162;2022-12-24T04:29:12;5.40;99.90
44886;DHT22;36669;51.428;21.162;2022-12-24T04:31:39;5.40;99.90
44886;DHT22;36669;51.428;21.162;2022-12-24T04:34:06;5.30;99.90
44886;DHT22;36669;51.428;21.162;2022-12-24T04:36:33;5.40;99.90
44886;DHT22;36669;51.428;21.162;2022-12-24T04:38:59;5.30;99.90
44886;DHT22;36669;51.428;21.162;2022-12-24T04:41:26;5.30;99.90
44886;DHT22;36669;51.428;21.162;2022-12-24T04:43:57;5.30;99.90
44886;DHT22;36669;51.428;21.162;2022-12-24T04:46:27;5.30;99.90
44886;DHT22;36669;51.428;21.162;2022-12-24T04:49:00;5.30;99.90
44886;DHT22;36669;51.428;21.162;2022-12-24T04:51:28;5.20;99.90
44886;DHT22;36669;51.428;21.162;2022-12-24T04:53:54;5.20;99.90
44886;DHT22;36669;51.428;21.162;2022-12-24T04:56:24;5.20;99.90
44886;DHT22;36669;51.428;21.162;2022-12-24T04:58:52;5.20;99.90
44886;DHT22;36669;51.428;21.162;2022-12-24T05:01:22;5.20;99.90
44886;DHT22;36669;51.428;21.162;2022-12-24T05:03:48;5.20;99.90
44886;DHT22;36669;51.428;21.162;2022-12-24T05:06:20;5.20;99.90
44886;DHT22;36669;51.428;21.162;2022-12-24T05:08:47;5.20;99.90
44886;DHT22;36669;51.428;21.162;2022-12-24T05:11:15;5.20;99.90
44886;DHT22;36669;51.428;21.162;2022-12-24T05:13:43;5.20;99.90
44886;DHT22;36669;51.428;21.162;2022-12-24T05:16:11;5.20;99.90
44886;DHT22;36669;51.428;21.162;2022-12-24T05:18:39;5.20;99.90
44886;DHT22;36669;51.428;21.162;2022-12-24T05:21:29;5.20;99.90
44886;DHT22;36669;51.428;21.162;2022-12-24T05:23:57;5.10;99.90
44886;DHT22;36669;51.428;21.162;2022-12-24T05:26:56;5.10;99.90
44886;DHT22;36669;51.428;21.162;2022-12-24T05:29:25;5.20;99.90
44886;DHT22;36669;51.428;21.162;2022-12-24T05:31:52;5.10;99.90
44886;DHT22;36669;51.428;21.162;2022-12-24T05:34:18;5.10;99.90
44886;DHT22;36669;51.428;21.162;2022-12-24T05:36:46;5.10;99.90
44886;DHT22;36669;51.428;21.162;2022-12-24T05:39:14;5.10;99.90
44886;DHT22;36669;51.428;21.162;2022-12-24T05:41:42;5.10;99.90
44886;DHT22;36669;51.428;21.162;2022-12-24T05:44:09;5.10;99.90
44886;DHT22;36669;51.428;21.162;2022-12-24T05:46:36;5.10;99.90
44886;DHT22;36669;51.428;21.162;2022-12-24T05:49:03;5.00;99.90
44886;DHT22;36669;51.428;21.162;2022-12-24T05:51:31;5.10;99.90
44886;DHT22;36669;51.428;21.162;2022-12-24T05:54:01;5.00;99.90
44886;DHT22;36669;51.428;21.162;2022-12-24T05:56:29;4.90;99.90
44886;DHT22;36669;51.428;21.162;2022-12-24T05:58:57;4.90;99.90
44886;DHT22;36669;51.428;21.162;2022-12-24T06:01:23;4.90;99.90
44886;DHT22;36669;51.428;21.162;2022-12-24T06:03:52;4.90;99.90
44886;DHT22;36669;51.428;21.162;2022-12-24T06:06:24;4.80;99.90
44886;DHT22;36669;51.428;21.162;2022-12-24T06:09:02;4.80;99.90
44886;DHT22;36669;51.428;21.162;2022-12-24T06:11:30;4.80;99.90
44886;DHT22;36669;51.428;21.162;2022-12-24T06:13:56;4.80;99.90
44886;DHT22;36669;51.428;21.162;2022-12-24T06:16:24;4.80;99.90
44886;DHT22;36669;51.428;21.162;2022-12-24T06:18:50;4.80;99.90
44886;DHT22;36669;51.428;21.162;2022-12-24T06:21:18;4.80;99.90
44886;DHT22;36669;51.428;21.162;2022-12-24T06:23:47;4.80;99.90
44886;DHT22;36669;51.428;21.162;2022-12-24T06:26:18;4.90;99.90
44886;DHT22;36669;51.428;21.162;2022-12-24T06:28:49;4.80;99.90
44886;DHT22;36669;51.428;21.162;2022-12-24T06:31:20;4.90;99.90
44886;DHT22;36669;51.428;21.162;2022-12-24T06:33:49;4.90;99.90
44886;DHT22;36669;51.428;21.162;2022-12-24T06:36:22;4.80;99.90
44886;DHT22;36669;51.428;21.162;2022-12-24T06:38:49;4.90;99.90
44886;DHT22;36669;51.428;21.162;2022-12-24T06:41:18;4.80;99.90
44886;DHT22;36669;51.428;21.162;2022-12-24T06:43:50;4.80;99.90
44886;DHT22;36669;51.428;21.162;2022-12-24T06:46:18;4.80;99.90
44886;DHT22;36669;51.428;21.162;2022-12-24T06:48:45;4.80;99.90
44886;DHT22;36669;51.428;21.162;2022-12-24T06:51:14;4.80;99.90
44886;DHT22;36669;51.428;21.162;2022-12-24T06:53:41;4.80;99.90
44886;DHT22;36669;51.428;21.162;2022-12-24T06:56:10;4.80;99.90
44886;DHT22;36669;51.428;21.162;2022-12-24T06:58:40;4.80;99.90
44886;DHT22;36669;51.428;21.162;2022-12-24T07:01:09;4.80;99.90
44886;DHT22;36669;51.428;21.162;2022-12-24T07:03:39;4.90;99.90
44886;DHT22;36669;51.428;21.162;2022-12-24T07:06:19;4.80;99.90
44886;DHT22;36669;51.428;21.162;2022-12-24T07:08:47;4.90;99.90
44886;DHT22;36669;51.428;21.162;2022-12-24T07:11:15;4.80;99.90
44886;DHT22;36669;51.428;21.162;2022-12-24T07:13:41;4.80;99.90
44886;DHT22;36669;51.428;21.162;2022-12-24T07:16:08;4.80;99.90
44886;DHT22;36669;51.428;21.162;2022-12-24T07:18:35;4.80;99.90
44886;DHT22;36669;51.428;21.162;2022-12-24T07:21:05;4.80;99.90
44886;DHT22;36669;51.428;21.162;2022-12-24T07:23:33;4.80;99.90
44886;DHT22;36669;51.428;21.162;2022-12-24T07:26:05;4.80;99.90
44886;DHT22;36669;51.428;21.162;2022-12-24T07:28:32;4.90;99.90
44886;DHT22;36669;51.428;21.162;2022-12-24T07:31:00;4.90;99.90
44886;DHT22;36669;51.428;21.162;2022-12-24T07:33:27;4.90;99.90
44886;DHT22;36669;51.428;21.162;2022-12-24T07:36:02;4.90;99.90
44886;DHT22;36669;51.428;21.162;2022-12-24T07:38:30;4.90;99.90
44886;DHT22;36669;51.428;21.162;2022-12-24T07:40:58;4.90;99.90
44886;DHT22;36669;51.428;21.162;2022-12-24T07:43:35;4.90;99.90
44886;DHT22;36669;51.428;21.162;2022-12-24T07:46:02;4.90;99.90
44886;DHT22;36669;51.428;21.162;2022-12-24T07:48:30;4.90;99.90
44886;DHT22;36669;51.428;21.162;2022-12-24T07:51:00;4.90;99.90
44886;DHT22;36669;51.428;21.162;2022-12-24T07:53:28;4.90;99.90
44886;DHT22;36669;51.428;21.162;2022-12-24T07:55:55;5.00;99.90
44886;DHT22;36669;51.428;21.162;2022-12-24T07:58:23;5.00;99.90
44886;DHT22;36669;51.428;21.162;2022-12-24T08:00:59;5.00;99.90
44886;DHT22;36669;51.428;21.162;2022-12-24T08:03:26;5.00;99.90
44886;DHT22;36669;51.428;21.162;2022-12-24T08:05:53;5.00;99.90
44886;DHT22;36669;51.428;21.162;2022-12-24T08:08:20;5.00;99.90
44886;DHT22;36669;51.428;21.162;2022-12-24T08:10:47;5.10;99.90
44886;DHT22;36669;51.428;21.162;2022-12-24T08:13:15;5.10;99.90
44886;DHT22;36669;51.428;21.162;2022-12-24T08:15:43;5.10;99.90
44886;DHT22;36669;51.428;21.162;2022-12-24T08:18:11;5.10;99.90
44886;DHT22;36669;51.428;21.162;2022-12-24T08:20:39;5.10;99.90
44886;DHT22;36669;51.428;21.162;2022-12-24T08:23:07;5.10;99.90
44886;DHT22;36669;51.428;21.162;2022-12-24T08:25:34;5.10;99.90
44886;DHT22;36669;51.428;21.162;2022-12-24T08:28:02;5.10;99.90
44886;DHT22;36669;51.428;21.162;2022-12-24T08:30:27;5.10;99.90
44886;DHT22;36669;51.428;21.162;2022-12-24T08:32:54;5.10;99.90
44886;DHT22;36669;51.428;21.162;2022-12-24T08:35:21;5.10;99.90
44886;DHT22;36669;51.428;21.162;2022-12-24T08:37:49;5.20;99.90
44886;DHT22;36669;51.428;21.162;2022-12-24T08:40:17;5.20;99.90
44886;DHT22;36669;51.428;21.162;2022-12-24T08:42:45;5.10;99.90
44886;DHT22;36669;51.428;21.162;2022-12-24T08:45:14;5.10;99.90
44886;DHT22;36669;51.428;21.162;2022-12-24T08:47:41;5.10;99.90
44886;DHT22;36669;51.428;21.162;2022-12-24T08:50:10;5.10;99.90
44886;DHT22;36669;51.428;21.162;2022-12-24T08:52:38;5.10;99.90
44886;DHT22;36669;51.428;21.162;2022-12-24T08:55:04;5.10;99.90
44886;DHT22;36669;51.428;21.162;2022-12-24T08:57:34;5.10;99.90
44886;DHT22;36669;51.428;21.162;2022-12-24T09:00:01;5.10;99.90
44886;DHT22;36669;51.428;21.162;2022-12-24T09:02:31;5.10;99.90
44886;DHT22;36669;51.428;21.162;2022-12-24T09:04:59;5.10;99.90
44886;DHT22;36669;51.428;21.162;2022-12-24T09:07:26;5.10;99.90
44886;DHT22;36669;51.428;21.162;2022-12-24T09:09:53;5.10;99.90
44886;DHT22;36669;51.428;21.162;2022-12-24T09:12:20;5.20;99.90
44886;DHT22;36669;51.428;21.162;2022-12-24T09:14:50;5.20;99.90
44886;DHT22;36669;51.428;21.162;2022-12-24T09:17:16;5.10;99.90
44886;DHT22;36669;51.428;21.162;2022-12-24T09:19:45;5.20;99.90
44886;DHT22;36669;51.428;21.162;2022-12-24T09:22:13;5.20;99.90
44886;DHT22;36669;51.428;21.162;2022-12-24T09:24:41;5.20;99.90
44886;DHT22;36669;51.428;21.162;2022-12-24T09:27:09;5.20;99.90
44886;DHT22;36669;51.428;21.162;2022-12-24T09:29:36;5.30;99.90
44886;DHT22;36669;51.428;21.162;2022-12-24T09:32:06;5.30;99.90
44886;DHT22;36669;51.428;21.162;2022-12-24T09:34:33;5.40;99.90
44886;DHT22;36669;51.428;21.162;2022-12-24T09:37:01;5.40;99.90
44886;DHT22;36669;51.428;21.162;2022-12-24T09:39:30;5.40;99.90
44886;DHT22;36669;51.428;21.162;2022-12-24T09:45:32;5.40;99.90
44886;DHT22;36669;51.428;21.162;2022-12-24T09:48:17;5.40;99.90
44886;DHT22;36669;51.428;21.162;2022-12-24T09:51:10;5.50;99.90
44886;DHT22;36669;51.428;21.162;2022-12-24T09:54:12;5.60;99.90
44886;DHT22;36669;51.428;21.162;2022-12-24T09:56:45;5.50;99.90
44886;DHT22;36669;51.428;21.162;2022-12-24T09:59:24;5.50;99.90
44886;DHT22;36669;51.428;21.162;2022-12-24T10:01:52;5.50;99.90
44886;DHT22;36669;51.428;21.162;2022-12-24T10:04:23;5.40;99.90
44886;DHT22;36669;51.428;21.162;2022-12-24T10:16:06;5.40;99.90
44886;DHT22;36669;51.428;21.162;2022-12-24T10:19:49;5.40;99.90
44886;DHT22;36669;51.428;21.162;2022-12-24T10:27:28;5.40;99.90
44886;DHT22;36669;51.428;21.162;2022-12-24T10:30:21;5.30;99.90
44886;DHT22;36669;51.428;21.162;2022-12-24T10:32:50;5.30;99.90
44886;DHT22;36669;51.428;21.162;2022-12-24T10:35:28;5.30;99.90
44886;DHT22;36669;51.428;21.162;2022-12-24T10:37:59;5.20;99.90
44886;DHT22;36669;51.428;21.162;2022-12-24T10:40:37;5.20;99.90
44886;DHT22;36669;51.428;21.162;2022-12-24T10:43:15;5.20;99.90
44886;DHT22;36669;51.428;21.162;2022-12-24T10:45:50;5.20;99.90
44886;DHT22;36669;51.428;21.162;2022-12-24T10:48:26;5.20;99.90
44886;DHT22;36669;51.428;21.162;2022-12-24T10:51:30;5.20;99.90
44886;DHT22;36669;51.428;21.162;2022-12-24T10:54:06;5.20;99.90
44886;DHT22;36669;51.428;21.162;2022-12-24T10:56:47;5.20;99.90
44886;DHT22;36669;51.428;21.162;2022-12-24T11:02:38;5.20;99.90
44886;DHT22;36669;51.428;21.162;2022-12-24T11:05:30;5.30;99.90
44886;DHT22;36669;51.428;21.162;2022-12-24T11:08:27;5.30;99.90
44886;DHT22;36669;51.428;21.162;2022-12-24T11:13:55;5.30;99.90
44886;DHT22;36669;51.428;21.162;2022-12-24T11:16:34;5.40;99.90
44886;DHT22;36669;51.428;21.162;2022-12-24T11:19:05;5.40;99.90
44886;DHT22;36669;51.428;21.162;2022-12-24T11:21:41;5.40;99.90
44886;DHT22;36669;51.428;21.162;2022-12-24T11:24:33;5.40;99.90
44886;DHT22;36669;51.428;21.162;2022-12-24T11:30:28;5.40;99.90
44886;DHT22;36669;51.428;21.162;2022-12-24T11:33:16;5.30;99.90
44886;DHT22;36669;51.428;21.162;2022-12-24T11:35:52;5.30;99.90
44886;DHT22;36669;51.428;21.162;2022-12-24T11:38:26;5.30;99.90
44886;DHT22;36669;51.428;21.162;2022-12-24T11:41:12;5.30;99.90
44886;DHT22;36669;51.428;21.162;2022-12-24T11:43:45;5.30;99.90
44886;DHT22;36669;51.428;21.162;2022-12-24T11:49:24;5.30;99.90
44886;DHT22;36669;51.428;21.162;2022-12-24T11:55:02;5.30;99.90
44886;DHT22;36669;51.428;21.162;2022-12-24T11:57:40;5.30;99.90
44886;DHT22;36669;51.428;21.162;2022-12-24T12:00:10;5.30;99.90
44886;DHT22;36669;51.428;21.162;2022-12-24T12:02:41;5.30;99.90
44886;DHT22;36669;51.428;21.162;2022-12-24T12:05:13;5.30;99.90
44886;DHT22;36669;51.428;21.162;2022-12-24T12:07:42;5.20;99.90
44886;DHT22;36669;51.428;21.162;2022-12-24T12:10:46;5.10;99.90
44886;DHT22;36669;51.428;21.162;2022-12-24T12:13:22;5.10;99.90
44886;DHT22;36669;51.428;21.162;2022-12-24T12:16:13;5.00;99.90
44886;DHT22;36669;51.428;21.162;2022-12-24T12:18:48;4.90;99.90
44886;DHT22;36669;51.428;21.162;2022-12-24T12:21:26;4.90;99.90
44886;DHT22;36669;51.428;21.162;2022-12-24T12:24:12;4.90;99.90
44886;DHT22;36669;51.428;21.162;2022-12-24T12:26:42;4.80;99.90
44886;DHT22;36669;51.428;21.162;2022-12-24T12:29:31;4.80;99.90
44886;DHT22;36669;51.428;21.162;2022-12-24T12:32:20;4.80;99.90
44886;DHT22;36669;51.428;21.162;2022-12-24T12:35:00;4.80;99.90
44886;DHT22;36669;51.428;21.162;2022-12-24T12:37:39;4.80;99.90
44886;DHT22;36669;51.428;21.162;2022-12-24T12:40:15;4.80;99.90
44886;DHT22;36669;51.428;21.162;2022-12-24T12:45:54;4.70;99.90
44886;DHT22;36669;51.428;21.162;2022-12-24T12:48:50;4.70;99.90
44886;DHT22;36669;51.428;21.162;2022-12-24T12:51:43;4.70;99.90
44886;DHT22;36669;51.428;21.162;2022-12-24T12:57:11;4.70;99.90
44886;DHT22;36669;51.428;21.162;2022-12-24T12:59:51;4.80;99.90
44886;DHT22;36669;51.428;21.162;2022-12-24T13:23:16;4.70;99.90
44886;DHT22;36669;51.428;21.162;2022-12-24T13:25:45;4.60;99.90
44886;DHT22;36669;51.428;21.162;2022-12-24T13:36:14;4.70;99.90
44886;DHT22;36669;51.428;21.162;2022-12-24T13:38:57;4.60;99.90
44886;DHT22;36669;51.428;21.162;2022-12-24T13:44:19;4.60;99.90
44886;DHT22;36669;51.428;21.162;2022-12-24T13:47:03;4.60;99.90
44886;DHT22;36669;51.428;21.162;2022-12-24T13:49:39;4.70;99.90
44886;DHT22;36669;51.428;21.162;2022-12-24T13:52:26;4.60;99.90
44886;DHT22;36669;51.428;21.162;2022-12-24T13:55:06;4.60;99.90
44886;DHT22;36669;51.428;21.162;2022-12-24T13:58:02;4.60;99.90
44886;DHT22;36669;51.428;21.162;2022-12-24T14:00:50;4.60;99.90
44886;DHT22;36669;51.428;21.162;2022-12-24T14:08:51;4.60;99.90
44886;DHT22;36669;51.428;21.162;2022-12-24T14:14:38;4.60;99.90
44886;DHT22;36669;51.428;21.162;2022-12-24T14:17:26;4.60;99.90
44886;DHT22;36669;51.428;21.162;2022-12-24T14:19:58;4.60;99.90
44886;DHT22;36669;51.428;21.162;2022-12-24T14:22:42;4.60;99.90
44886;DHT22;36669;51.428;21.162;2022-12-24T14:25:20;4.60;99.90
44886;DHT22;36669;51.428;21.162;2022-12-24T14:27:55;4.50;99.90
44886;DHT22;36669;51.428;21.162;2022-12-24T14:30:31;4.50;99.90
44886;DHT22;36669;51.428;21.162;2022-12-24T14:32:58;4.50;99.90
44886;DHT22;36669;51.428;21.162;2022-12-24T14:35:35;4.50;99.90
44886;DHT22;36669;51.428;21.162;2022-12-24T14:38:17;4.50;99.90
44886;DHT22;36669;51.428;21.162;2022-12-24T14:47:34;4.50;99.90
44886;DHT22;36669;51.428;21.162;2022-12-24T14:52:34;4.40;99.90
44886;DHT22;36669;51.428;21.162;2022-12-24T14:58:34;4.40;99.90
44886;DHT22;36669;51.428;21.162;2022-12-24T15:01:22;4.50;99.90
44886;DHT22;36669;51.428;21.162;2022-12-24T15:04:14;4.50;99.90
44886;DHT22;36669;51.428;21.162;2022-12-24T15:06:48;4.40;99.90
44886;DHT22;36669;51.428;21.162;2022-12-24T15:09:30;4.40;99.90
44886;DHT22;36669;51.428;21.162;2022-12-24T15:12:03;4.40;99.90
44886;DHT22;36669;51.428;21.162;2022-12-24T15:14:42;4.40;99.90
44886;DHT22;36669;51.428;21.162;2022-12-24T15:17:10;4.40;99.90
44886;DHT22;36669;51.428;21.162;2022-12-24T15:19:40;4.40;99.90
44886;DHT22;36669;51.428;21.162;2022-12-24T15:22:25;4.40;99.90
44886;DHT22;36669;51.428;21.162;2022-12-24T15:24:54;4.40;99.90
44886;DHT22;36669;51.428;21.162;2022-12-24T15:27:30;4.40;99.90
44886;DHT22;36669;51.428;21.162;2022-12-24T15:29:58;4.40;99.90
44886;DHT22;36669;51.428;21.162;2022-12-24T15:32:33;4.40;99.90
44886;DHT22;36669;51.428;21.162;2022-12-24T15:35:00;4.40;99.90
44886;DHT22;36669;51.428;21.162;2022-12-24T15:37:39;4.40;99.90
44886;DHT22;36669;51.428;21.162;2022-12-24T15:40:19;4.40;99.90
44886;DHT22;36669;51.428;21.162;2022-12-24T15:42:49;4.40;99.90
44886;DHT22;36669;51.428;21.162;2022-12-24T15:45:25;4.40;99.90
44886;DHT22;36669;51.428;21.162;2022-12-24T15:47:59;4.40;99.90
44886;DHT22;36669;51.428;21.162;2022-12-24T15:50:35;4.40;99.90
44886;DHT22;36669;51.428;21.162;2022-12-24T15:53:14;4.40;99.90
44886;DHT22;36669;51.428;21.162;2022-12-24T15:56:00;4.40;99.90
44886;DHT22;36669;51.428;21.162;2022-12-24T16:06:18;4.40;99.90
44886;DHT22;36669;51.428;21.162;2022-12-24T16:08:49;4.40;99.90
44886;DHT22;36669;51.428;21.162;2022-12-24T16:11:20;4.40;99.90
44886;DHT22;36669;51.428;21.162;2022-12-24T16:14:24;4.40;99.90
44886;DHT22;36669;51.428;21.162;2022-12-24T16:16:53;4.40;99.90
44886;DHT22;36669;51.428;21.162;2022-12-24T16:19:26;4.40;99.90
44886;DHT22;36669;51.428;21.162;2022-12-24T16:21:56;4.40;99.90
44886;DHT22;36669;51.428;21.162;2022-12-24T16:24:34;4.40;99.90
44886;DHT22;36669;51.428;21.162;2022-12-24T16:27:01;4.40;99.90
44886;DHT22;36669;51.428;21.162;2022-12-24T16:29:35;4.40;99.90
44886;DHT22;36669;51.428;21.162;2022-12-24T16:32:05;4.40;99.90
44886;DHT22;36669;51.428;21.162;2022-12-24T16:34:32;4.40;99.90
44886;DHT22;36669;51.428;21.162;2022-12-24T16:36:59;4.50;99.90
44886;DHT22;36669;51.428;21.162;2022-12-24T16:39:30;4.40;99.90
44886;DHT22;36669;51.428;21.162;2022-12-24T16:42:02;4.40;99.90
44886;DHT22;36669;51.428;21.162;2022-12-24T16:44:47;4.50;99.90
44886;DHT22;36669;51.428;21.162;2022-12-24T16:47:21;4.50;99.90
44886;DHT22;36669;51.428;21.162;2022-12-24T16:49:49;4.50;99.90
44886;DHT22;36669;51.428;21.162;2022-12-24T16:52:41;4.50;99.90
44886;DHT22;36669;51.428;21.162;2022-12-24T16:55:20;4.40;99.90
44886;DHT22;36669;51.428;21.162;2022-12-24T16:57:47;4.50;99.90
44886;DHT22;36669;51.428;21.162;2022-12-24T17:00:18;4.50;99.90
44886;DHT22;36669;51.428;21.162;2022-12-24T17:02:48;4.50;99.90
44886;DHT22;36669;51.428;21.162;2022-12-24T17:05:16;4.50;99.90
44886;DHT22;36669;51.428;21.162;2022-12-24T17:07:44;4.50;99.90
44886;DHT22;36669;51.428;21.162;2022-12-24T17:10:13;4.50;99.90
44886;DHT22;36669;51.428;21.162;2022-12-24T17:12:39;4.50;99.90
44886;DHT22;36669;51.428;21.162;2022-12-24T17:15:08;4.50;99.90
44886;DHT22;36669;51.428;21.162;2022-12-24T17:17:35;4.50;99.90
44886;DHT22;36669;51.428;21.162;2022-12-24T17:20:04;4.50;99.90
44886;DHT22;36669;51.428;21.162;2022-12-24T17:22:32;4.50;99.90
44886;DHT22;36669;51.428;21.162;2022-12-24T17:24:57;4.50;99.90
44886;DHT22;36669;51.428;21.162;2022-12-24T17:27:25;4.50;99.90
44886;DHT22;36669;51.428;21.162;2022-12-24T17:29:57;4.50;99.90
44886;DHT22;36669;51.428;21.162;2022-12-24T17:32:29;4.50;99.90
44886;DHT22;36669;51.428;21.162;2022-12-24T17:34:56;4.50;99.90
44886;DHT22;36669;51.428;21.162;2022-12-24T17:37:26;4.50;99.90
44886;DHT22;36669;51.428;21.162;2022-12-24T17:39:54;4.50;99.90
44886;DHT22;36669;51.428;21.162;2022-12-24T17:42:21;4.50;99.90
44886;DHT22;36669;51.428;21.162;2022-12-24T17:44:48;4.50;99.90
44886;DHT22;36669;51.428;21.162;2022-12-24T17:47:15;4.50;99.90
44886;DHT22;36669;51.428;21.162;2022-12-24T17:49:45;4.60;99.90
44886;DHT22;36669;51.428;21.162;2022-12-24T17:52:14;4.50;99.90
44886;DHT22;36669;51.428;21.162;2022-12-24T17:54:41;4.50;99.90
44886;DHT22;36669;51.428;21.162;2022-12-24T17:57:09;4.50;99.90
44886;DHT22;36669;51.428;21.162;2022-12-24T17:59:35;4.50;99.90
44886;DHT22;36669;51.428;21.162;2022-12-24T18:02:04;4.50;99.90
44886;DHT22;36669;51.428;21.162;2022-12-24T18:04:31;4.50;99.90